Date,TemperatureHighF,TemperatureAvgF,TemperatureLowF,DewpointHighF,DewpointAvgF,DewpointLowF,HumidityHigh,HumidityAvg,HumidityLow,PressureMaxIn,PressureMinIn,WindSpeedMaxMPH,WindSpeedAvgMPH,GustSpeedMaxMPH,PrecipitationSumIn
2014-1-1,38,30,22,27,15,3,83,55,26,30.36,30.20,17,4,22,0.00
2014-1-2,46,32,16,8,0,-12,50,28,9,30.38,30.26,10,4,15,0.00
2014-1-3,48,35,22,13,5,-5,54,30,11,30.26,29.98,13,4,26,0.00
2014-1-4,36,23,8,20,12,1,89,66,34,30.09,29.88,15,6,26,0.00
2014-1-5,18,10,2,8,2,-6,85,71,59,30.32,30.08,8,3,14,0.01
2014-1-6,32,16,1,7,0,-9,74,51,28,30.40,30.30,9,3,16,0.01
2014-1-7,40,25,8,17,11,0,85,58,32,30.32,30.14,7,1,11,0.02
2014-1-8,38,30,23,23,18,10,78,64,49,30.16,30.10,6,1,14,0.00
2014-1-9,36,28,20,23,20,14,85,73,47,30.14,29.98,21,5,24,0.00
2014-1-10,34,27,20,22,18,11,90,69,54,30.23,30.02,17,7,22,0.00
2014-1-11,45,35,26,23,20,17,70,56,39,30.29,30.02,9,3,16,0.01
2014-1-12,41,30,20,25,15,5,85,54,38,30.24,29.94,18,8,30,0.00
2014-1-13,35,25,16,16,11,6,68,58,43,30.38,30.25,10,5,13,0.00
2014-1-14,37,27,19,17,13,10,72,56,41,30.48,30.34,11,4,18,0.00
2014-1-15,42,28,19,18,13,9,76,56,35,30.46,30.35,8,2,10,0.00
2014-1-16,41,28,14,14,10,6,76,50,24,30.39,30.33,7,2,15,0.00
2014-1-17,43,30,21,12,10,7,59,44,24,30.36,30.28,8,3,13,0.00
2014-1-18,41,28,16,17,12,9,73,54,32,30.36,30.28,10,2,12,0.00
2014-1-19,47,33,23,18,14,10,62,47,26,30.37,30.28,9,3,17,0.00
2014-1-20,44,32,20,17,13,9,68,46,31,30.48,30.28,11,4,15,0.00
2014-1-21,47,28,14,11,4,-6,65,40,11,30.49,30.31,6,2,8,0.00
2014-1-22,40,27,14,11,3,-6,66,38,16,30.31,30.06,8,2,12,0.00
2014-1-23,31,23,14,17,12,5,80,62,38,30.45,30.07,11,2,13,0.00
2014-1-24,39,27,15,15,8,-1,80,47,27,30.49,30.42,9,3,15,0.00
2014-1-25,44,28,15,14,8,2,68,46,25,30.42,30.21,7,2,9,0.00
2014-1-26,42,31,19,17,13,8,70,50,28,30.21,30.09,9,3,13,0.00
2014-1-27,44,33,24,18,14,10,67,48,31,30.12,30.02,19,6,22,0.00
2014-1-28,32,24,13,20,4,-12,92,50,15,30.26,30.11,11,2,14,0.03
2014-1-29,44,34,20,27,11,-4,58,40,26,30.26,29.91,23,5,30,0.00
2014-1-30,45,40,29,33,29,26,89,66,48,29.95,29.79,25,9,40,0.12
2014-1-31,36,27,23,29,25,21,94,91,71,29.87,29.77,21,3,33,0.06
2014-2-1,26,20,10,22,17,7,93,88,79,30.07,29.86,7,2,11,0.01
2014-2-2,27,16,0,18,10,-3,91,78,56,30.10,30.00,8,2,13,0.01
2014-2-3,32,22,17,24,19,13,93,86,70,30.01,29.87,8,1,10,0.00
2014-2-4,30,20,10,20,16,5,92,84,61,30.06,29.86,11,2,18,0.00
2014-2-5,25,17,7,14,10,3,90,73,56,30.10,30.03,7,3,13,0.00
2014-2-6,34,25,18,19,15,10,80,66,49,30.04,29.96,15,4,22,0.00
2014-2-7,36,27,19,22,18,13,86,68,53,30.07,29.94,15,5,26,0.01
2014-2-8,40,35,28,29,23,16,78,63,54,30.18,30.02,20,7,28,0.03
2014-2-9,45,37,32,34,30,26,94,77,49,30.16,30.07,19,6,30,0.05
2014-2-10,39,33,28,33,30,27,95,89,74,30.19,30.05,10,3,20,0.12
2014-2-11,38,26,15,28,17,13,95,71,37,30.26,30.12,7,2,20,0.03
2014-2-12,44,33,18,25,16,9,80,53,25,30.27,30.17,16,5,22,0.00
2014-2-13,49,43,38,27,25,22,63,50,37,30.22,30.14,19,7,27,0.00
2014-2-14,47,42,38,29,27,26,65,57,48,30.24,30.18,13,5,20,0.00
2014-2-15,53,46,37,27,21,16,53,38,25,30.25,30.18,14,5,22,0.00
2014-2-16,50,42,30,27,19,14,52,40,31,30.29,30.06,23,7,37,0.00
2014-2-17,51,38,24,15,8,0,63,32,15,30.33,30.16,11,4,15,0.00
2014-2-18,52,41,28,20,12,5,50,33,15,30.21,30.13,15,4,21,0.00
2014-2-19,48,36,19,30,18,11,92,53,28,30.12,29.84,20,6,30,0.00
2014-2-20,28,19,10,11,5,2,75,56,34,30.20,30.01,13,5,22,0.08
2014-2-21,40,30,19,20,10,2,89,47,23,30.16,30.06,14,5,22,0.04
2014-2-22,44,34,26,17,13,10,60,44,29,30.11,30.03,17,5,26,0.00
2014-2-23,49,37,24,15,12,8,62,39,20,30.20,30.12,12,5,21,0.00
2014-2-24,51,41,31,15,10,5,40,30,16,30.22,30.18,14,5,22,0.00
2014-2-25,52,41,30,17,13,6,48,32,22,30.20,30.11,14,6,19,0.00
2014-2-26,48,38,26,26,21,14,72,53,39,30.16,30.09,10,3,17,0.00
2014-2-27,46,36,31,34,27,18,93,72,45,30.09,29.86,16,5,37,0.00
2014-2-28,44,36,29,29,26,17,90,68,37,30.06,29.95,14,5,26,0.16
2014-3-1,44,38,31,34,29,24,92,70,50,30.01,29.86,19,6,27,0.04
2014-3-2,42,33,29,33,28,23,93,82,61,30.21,30.00,10,2,16,0.24
2014-3-3,47,37,29,25,22,19,76,55,35,30.23,30.16,11,4,16,0.00
2014-3-4,49,35,29,31,23,13,94,65,37,30.18,30.03,12,4,21,0.00
2014-3-5,46,34,22,31,22,9,95,66,23,30.31,30.18,11,2,13,0.16
2014-3-6,56,42,31,29,14,8,71,35,15,30.29,30.07,26,5,28,0.00
2014-3-7,42,33,28,32,28,22,93,83,47,30.17,30.01,12,3,20,0.16
2014-3-8,41,31,26,31,26,22,94,82,57,30.44,30.17,9,2,12,0.19
2014-3-9,56,37,20,27,20,14,87,54,20,30.44,30.32,10,3,15,0.00
2014-3-10,60,46,32,14,5,-10,44,22,6,30.34,29.99,14,5,25,0.00
2014-3-11,46,34,25,25,16,8,89,53,22,30.26,29.99,15,6,22,0.00
2014-3-12,44,28,14,22,16,11,93,65,30,30.35,30.26,9,2,14,0.02
2014-3-13,48,37,27,29,19,9,78,50,30,30.29,30.12,10,4,20,0.00
2014-3-14,51,38,27,27,20,14,83,54,24,30.18,30.12,11,4,16,0.00
2014-3-15,39,32,24,25,16,8,87,53,29,30.39,30.13,24,6,32,0.02
2014-3-16,50,35,23,17,12,8,58,40,19,30.43,30.26,9,3,14,0.00
2014-3-17,54,42,24,18,12,4,46,31,17,30.25,29.75,25,9,39,0.00
2014-3-18,38,26,17,16,10,4,74,54,31,30.13,29.89,8,1,14,0.00
2014-3-19,46,31,18,17,12,7,84,52,23,30.28,30.13,10,2,16,0.00
2014-3-20,54,38,20,11,2,-3,55,25,10,30.26,30.11,19,6,23,0.00
2014-3-21,52,40,31,21,9,1,52,29,16,30.13,30.07,13,4,16,0.00
2014-3-22,45,36,28,31,21,10,93,59,30,30.26,30.05,14,4,22,0.01
2014-3-23,51,37,25,26,13,1,93,44,18,30.28,30.18,17,6,22,0.04
2014-3-24,52,40,30,11,8,4,38,27,16,30.31,30.25,13,5,19,0.00
2014-3-25,59,46,34,14,9,1,37,24,10,30.29,30.01,16,7,19,0.00
2014-3-26,50,40,30,32,25,11,92,57,29,30.01,29.73,23,8,44,0.00
2014-3-27,42,33,29,32,27,22,93,78,49,30.06,29.82,17,5,28,0.14
2014-3-28,46,35,27,27,18,11,91,56,25,30.31,30.06,18,5,21,0.00
2014-3-29,56,42,28,15,11,7,49,31,18,30.31,30.17,14,6,26,0.00
2014-3-30,54,43,32,25,16,5,54,35,19,30.17,29.81,32,9,54,0.00
2014-3-31,48,36,23,18,10,-4,72,40,13,30.13,29.99,26,6,32,0.00
2014-4-1,50,44,35,22,11,3,59,27,19,30.00,29.85,30,12,46,0.00
2014-4-2,41,34,27,28,20,7,91,61,24,29.93,29.87,22,8,30,0.00
2014-4-3,37,29,24,27,24,17,92,80,56,30.18,29.90,9,3,12,0.34
2014-4-4,45,33,24,23,16,11,70,51,26,30.18,30.07,15,5,24,0.02
2014-4-5,46,36,27,30,23,18,93,64,33,30.07,29.97,17,3,23,0.00
2014-4-6,42,33,27,33,26,18,92,76,38,30.18,30.07,12,3,22,0.12
2014-4-7,47,35,27,32,26,21,94,72,36,30.37,30.18,11,3,15,0.16
2014-4-8,59,44,30,28,24,21,73,48,24,30.42,30.35,9,3,15,0.00
2014-4-9,64,51,39,24,18,13,48,29,15,30.37,30.21,17,6,24,0.00
2014-4-10,64,54,43,18,14,8,34,22,11,30.25,30.19,17,6,26,0.00
2014-4-11,68,53,38,21,16,9,46,25,13,30.26,30.13,12,5,22,0.00
2014-4-12,62,47,38,36,24,9,91,46,20,30.13,29.95,23,7,28,0.14
2014-4-13,42,35,23,35,30,21,94,83,60,30.13,29.90,17,4,29,0.14
2014-4-14,36,26,17,25,20,14,91,77,52,30.34,30.13,9,3,13,0.41
2014-4-15,52,39,22,22,15,7,71,42,21,30.30,30.04,14,5,16,0.00
2014-4-16,50,42,34,27,19,9,70,41,23,30.14,30.00,14,4,19,0.00
2014-4-17,60,46,33,25,21,16,68,40,23,30.23,30.14,13,6,21,0.00
2014-4-18,67,55,43,31,24,20,47,32,18,30.24,30.14,17,6,24,0.00
2014-4-19,55,48,41,43,36,30,84,65,47,30.24,30.18,9,3,15,0.04
2014-4-20,63,49,37,40,33,26,91,59,26,30.32,30.23,14,4,19,0.00
2014-4-21,66,52,37,36,29,22,73,45,20,30.36,30.27,11,3,18,0.00
2014-4-22,63,55,46,39,30,22,58,39,26,30.28,29.97,26,6,35,0.00
2014-4-23,56,47,32,27,20,11,52,35,26,30.15,29.95,18,8,40,0.00
2014-4-24,61,41,22,15,10,-2,63,33,9,30.23,30.14,21,4,21,0.00
2014-4-25,66,54,38,19,12,5,38,21,9,30.16,29.92,18,6,30,0.00
2014-4-26,54,43,32,35,27,18,93,60,26,29.95,29.76,23,9,33,0.11
2014-4-27,42,34,30,29,25,19,91,70,46,30.00,29.80,23,7,30,0.10
2014-4-28,38,33,26,27,18,8,82,57,33,30.24,29.98,25,6,35,0.06
2014-4-29,41,30,24,26,21,17,86,71,40,30.36,30.24,15,3,27,0.01
2014-4-30,42,33,22,24,20,17,86,62,42,30.37,30.29,14,4,19,0.00
2014-5-1,52,38,22,20,17,12,82,47,24,30.38,30.29,14,4,29,0.00
2014-5-2,64,50,34,26,21,16,48,33,20,30.32,30.24,14,6,20,0.00
2014-5-3,72,58,40,27,20,13,51,26,11,30.28,30.20,14,6,19,0.00
2014-5-4,71,60,50,20,15,9,28,17,10,30.25,30.18,20,7,31,0.00
2014-5-5,70,59,48,19,12,8,31,16,10,30.21,30.05,22,7,28,0.00
2014-5-6,65,56,48,21,15,8,33,21,12,30.05,29.89,26,8,35,0.00
2014-5-7,56,45,31,27,16,-1,62,35,11,30.01,29.89,28,7,40,0.00
2014-5-8,43,38,32,35,28,18,88,70,56,30.18,30.00,11,4,17,0.04
2014-5-9,56,46,33,28,24,21,74,45,30,30.17,30.07,26,8,32,0.00
2014-5-10,62,50,36,38,27,21,77,44,22,30.11,29.89,24,5,29,0.01
2014-5-11,44,38,31,40,35,30,95,88,75,30.03,29.81,22,4,29,0.43
2014-5-12,34,30,27,31,29,26,95,93,89,30.31,30.03,11,2,14,0.32
2014-5-13,43,34,26,33,26,22,95,77,44,30.50,30.30,10,4,16,0.24
2014-5-14,53,40,27,25,20,16,81,50,23,30.50,30.41,11,4,32,0.00
2014-5-15,62,49,36,32,25,20,59,41,24,30.42,30.35,13,4,23,0.00
2014-5-16,68,55,39,35,28,22,59,38,20,30.36,30.22,16,4,31,0.00
2014-5-17,70,59,48,34,28,17,51,32,13,30.24,30.16,15,6,20,0.00
2014-5-18,73,63,50,29,20,10,38,21,11,30.17,30.04,19,7,27,0.00
2014-5-19,73,62,49,21,13,5,28,15,8,30.13,30.06,21,6,41,0.00
2014-5-20,73,61,46,20,12,0,29,16,6,30.18,30.12,15,5,26,0.00
2014-5-21,67,58,48,33,26,18,50,30,19,30.25,30.16,22,6,40,0.00
2014-5-22,68,55,45,37,32,28,66,42,23,30.29,30.23,12,4,21,0.00
2014-5-23,67,50,42,44,38,34,87,65,37,30.30,30.22,16,5,24,0.01
2014-5-24,63,46,34,41,36,31,93,69,34,30.25,30.17,12,5,26,0.18
2014-5-25,55,41,33,44,38,32,96,88,64,30.26,30.17,15,3,20,0.84
2014-5-26,66,51,37,45,37,29,96,66,26,30.34,30.25,12,4,24,0.00
2014-5-27,76,62,50,42,34,26,53,38,16,30.38,30.32,14,5,21,0.00
2014-5-28,82,66,56,47,33,28,55,30,15,30.34,30.25,18,7,40,0.03
2014-5-29,75,64,58,46,39,34,59,41,25,30.32,30.26,13,6,25,0.01
2014-5-30,70,57,49,50,42,35,87,60,29,30.34,30.26,14,3,16,0.03
2014-5-31,78,66,54,40,32,20,51,31,12,30.29,30.18,20,7,26,0.00
2014-6-1,76,65,55,33,20,9,39,19,9,30.25,30.17,17,7,27,0.00
2014-6-2,81,66,52,22,16,9,22,16,8,30.28,30.21,16,6,26,0.00
2014-6-3,78,66,47,31,20,6,30,18,7,30.23,30.17,27,8,38,0.00
2014-6-4,80,66,52,16,12,5,23,13,6,30.22,30.15,20,7,28,0.00
2014-6-5,80,64,42,27,17,8,34,18,7,30.23,30.15,12,5,23,0.00
2014-6-6,79,65,52,32,20,13,31,19,8,30.20,30.14,17,6,24,0.00
2014-6-7,79,64,51,36,26,21,38,25,13,30.21,30.16,13,5,19,0.00
2014-6-8,65,54,40,44,33,23,85,50,25,30.32,30.14,14,6,29,0.13
2014-6-9,69,51,31,37,28,18,94,51,15,30.34,30.26,13,4,16,0.00
2014-6-10,80,64,49,31,25,18,34,24,12,30.27,30.18,15,6,26,0.00
2014-6-11,75,62,49,39,33,24,59,36,23,30.27,30.14,16,5,27,0.00
2014-6-12,78,62,44,36,32,24,68,36,15,30.29,30.22,11,5,19,0.00
2014-6-13,77,66,50,31,26,20,39,23,14,30.23,30.07,23,8,34,0.00
2014-6-14,70,60,45,29,20,12,33,22,11,30.17,30.03,23,6,34,0.00
2014-6-15,75,59,40,24,15,8,40,22,8,30.16,30.08,20,6,30,0.00
2014-6-16,74,65,54,18,12,5,24,13,8,30.15,30.07,23,9,42,0.00
2014-6-17,75,66,57,29,23,12,26,19,13,30.14,30.07,22,9,35,0.00
2014-6-18,70,59,41,34,26,18,55,29,17,30.23,30.12,21,7,31,0.00
2014-6-19,74,56,36,31,24,14,68,34,10,30.37,30.24,13,4,22,0.00
2014-6-20,80,64,46,28,23,20,36,23,12,30.36,30.26,16,5,22,0.00
2014-6-21,78,68,57,30,24,20,26,20,13,30.28,30.21,22,7,26,0.00
2014-6-22,79,66,57,34,28,22,33,24,15,30.27,30.22,12,5,28,0.00
2014-6-23,79,67,56,34,24,12,30,20,9,30.28,30.23,15,6,28,0.00
2014-6-24,81,67,48,29,23,19,37,20,11,30.30,30.23,12,4,15,0.00
2014-6-25,84,71,59,26,21,17,23,16,10,30.27,30.19,13,7,22,0.00
2014-6-26,82,70,57,30,22,12,25,17,9,30.22,30.09,20,8,30,0.00
2014-6-27,71,63,55,38,32,16,51,33,17,30.14,30.10,17,6,26,0.00
2014-6-28,78,64,48,38,29,18,58,31,11,30.27,30.14,17,5,25,0.00
2014-6-29,87,76,59,33,29,23,33,19,11,30.31,30.25,15,6,25,0.00
2014-6-30,86,74,62,38,29,22,30,20,10,30.29,30.24,15,7,21,0.00
2014-7-1,81,66,45,33,23,8,50,21,7,30.32,30.26,13,4,21,0.00
2014-7-2,86,70,47,31,24,17,38,19,9,30.35,30.28,13,4,18,0.00
2014-7-3,82,68,60,43,39,28,46,35,21,30.41,30.33,17,8,30,0.00
2014-7-4,82,69,57,46,40,34,51,36,20,30.44,30.36,13,6,23,0.00
2014-7-5,82,68,57,47,43,37,61,42,21,30.46,30.38,20,7,31,0.00
2014-7-6,87,68,58,53,43,38,75,42,18,30.44,30.33,20,6,29,0.17
2014-7-7,84,68,59,61,43,38,87,43,22,30.39,30.31,15,6,25,0.16
2014-7-8,87,70,57,46,41,30,57,38,13,30.37,30.31,29,7,41,0.00
2014-7-9,83,68,58,47,44,41,60,43,25,30.40,30.30,14,5,23,0.00
2014-7-10,83,68,56,51,46,42,67,47,27,30.36,30.25,15,5,23,0.03
2014-7-11,80,68,55,53,49,45,78,51,34,30.38,30.31,13,4,22,0.00
2014-7-12,85,71,61,50,46,40,63,43,22,30.42,30.36,16,5,23,0.00
2014-7-13,87,72,56,50,44,34,68,39,16,30.45,30.35,14,4,20,0.00
2014-7-14,87,73,61,48,43,38,56,36,18,30.45,30.35,13,5,20,0.00
2014-7-15,86,71,59,47,43,37,53,38,23,30.40,30.28,14,6,22,0.00
2014-7-16,80,67,55,54,44,38,87,45,25,30.34,30.19,14,6,21,0.13
2014-7-17,80,67,50,45,40,36,66,40,22,30.29,30.22,14,5,22,0.00
2014-7-18,84,71,58,39,36,33,43,29,17,30.32,30.27,12,5,27,0.00
2014-7-19,85,73,63,40,37,34,36,28,18,30.34,30.29,14,5,20,0.00
2014-7-20,87,70,59,57,42,33,80,41,16,30.37,30.30,15,6,36,0.29
2014-7-21,88,73,60,45,36,30,54,28,15,30.43,30.36,14,6,29,0.00
2014-7-22,91,76,61,37,30,18,31,21,7,30.49,30.42,15,6,22,0.00
2014-7-23,91,77,69,44,40,33,36,27,14,30.50,30.41,20,5,33,0.00
2014-7-24,83,68,57,56,48,41,91,52,27,30.45,30.37,26,9,40,0.20
2014-7-25,81,69,60,53,49,46,67,51,35,30.41,30.33,22,5,27,0.00
2014-7-26,84,71,59,52,48,44,64,45,27,30.42,30.36,13,4,20,0.00
2014-7-27,84,68,57,53,48,44,81,49,30,30.47,30.40,21,4,36,0.01
2014-7-28,78,66,54,52,49,46,90,56,34,30.50,30.41,26,6,28,0.20
2014-7-29,65,58,53,60,54,51,95,87,74,30.47,30.37,8,2,16,0.52
2014-7-30,75,63,51,55,52,48,96,71,43,30.40,30.34,11,3,16,0.00
2014-7-31,74,61,50,58,51,47,94,72,46,30.40,30.33,10,3,18,0.03
2014-8-1,76,62,55,53,49,46,77,65,38,30.41,30.35,15,5,25,0.01
2014-8-2,79,65,49,50,44,37,85,53,23,30.43,30.34,12,4,17,0.00
2014-8-3,79,65,56,56,48,40,80,56,32,30.44,30.34,18,6,30,0.03
2014-8-4,72,61,54,57,51,48,91,71,45,30.41,30.34,12,3,16,0.08
2014-8-5,77,62,52,55,48,41,95,65,28,30.45,30.33,15,4,20,0.32
2014-8-6,82,67,49,46,39,33,77,40,17,30.40,30.31,17,5,21,0.00
2014-8-7,81,68,57,44,37,28,53,35,16,30.35,30.26,14,5,21,0.00
2014-8-8,80,67,55,37,30,23,45,27,12,30.34,30.30,14,6,19,0.00
2014-8-9,80,66,54,40,35,30,54,33,20,30.41,30.34,14,5,19,0.00
2014-8-10,80,65,48,42,38,32,66,39,21,30.44,30.38,14,4,20,0.00
2014-8-11,83,67,52,43,37,29,53,35,14,30.48,30.41,13,5,26,0.00
2014-8-12,80,65,58,54,45,37,74,50,28,30.48,30.41,14,6,19,0.00
2014-8-13,77,63,54,54,49,46,81,62,37,30.41,30.33,11,3,18,0.01
2014-8-14,69,60,53,58,53,49,95,79,62,30.38,30.33,5,2,14,0.15
2014-8-15,79,64,52,52,47,43,79,57,29,30.41,30.34,13,5,15,0.00
2014-8-16,83,69,57,47,40,25,60,39,12,30.42,30.36,12,5,17,0.00
2014-8-17,86,72,62,42,37,34,42,30,16,30.41,30.32,14,6,21,0.00
2014-8-18,86,73,62,40,35,28,41,27,13,30.34,30.23,13,5,20,0.00
2014-8-19,75,63,55,51,46,35,83,57,29,30.31,30.16,13,4,31,0.04
2014-8-20,76,63,53,54,47,40,94,61,28,30.31,30.21,13,4,23,0.03
2014-8-21,76,61,48,45,40,33,75,49,22,30.35,30.31,11,4,16,0.00
2014-8-22,71,57,51,54,46,40,89,69,38,30.35,30.24,12,4,23,0.07
2014-8-23,72,55,48,50,45,41,96,72,33,30.31,30.21,22,5,25,0.27
2014-8-24,71,58,45,52,47,43,96,70,40,30.31,30.25,9,3,13,0.01
2014-8-25,76,63,50,49,43,39,72,50,31,30.32,30.26,12,4,13,0.00
2014-8-26,74,58,51,51,44,38,95,64,32,30.41,30.32,19,3,23,0.70
2014-8-27,64,52,45,51,46,41,97,80,45,30.41,30.36,12,3,21,0.14
2014-8-28,66,53,46,50,45,42,94,76,47,30.42,30.35,9,2,14,0.11
2014-8-29,73,60,49,45,41,38,71,51,31,30.37,30.29,10,5,14,0.00
2014-8-30,78,65,52,41,38,34,56,38,23,30.34,30.23,15,6,20,0.00
2014-8-31,76,66,56,41,36,32,55,34,20,30.24,30.18,29,6,31,0.00
2014-9-1,78,63,46,37,33,28,59,35,16,30.32,30.24,22,5,27,0.00
2014-9-2,83,68,54,38,34,31,44,30,17,30.33,30.23,13,6,19,0.00
2014-9-3,82,69,57,38,32,28,42,27,14,30.25,30.16,20,7,25,0.00
2014-9-4,69,60,52,47,36,25,73,44,26,30.32,30.20,16,5,23,0.00
2014-9-5,76,60,48,44,40,33,77,51,22,30.40,30.30,19,4,25,0.00
2014-9-6,76,63,52,44,40,39,64,46,27,30.44,30.35,12,4,16,0.00
2014-9-7,76,61,52,55,42,36,89,53,30,30.39,30.31,22,6,27,0.21
2014-9-8,61,56,51,53,50,43,93,79,57,30.35,30.25,10,3,21,0.23
2014-9-9,62,52,48,56,49,45,97,88,56,30.26,30.18,15,4,20,1.10
2014-9-10,67,55,47,50,43,32,97,69,28,30.33,30.24,9,3,13,0.00
2014-9-11,72,58,47,37,34,30,63,42,22,30.34,30.27,10,5,19,0.00
2014-9-12,70,55,41,38,35,30,78,49,27,30.38,30.31,11,4,13,0.00
2014-9-13,74,61,49,37,29,21,56,31,18,30.37,30.31,11,4,15,0.00
2014-9-14,76,64,54,41,35,29,49,36,21,30.37,30.30,11,5,18,0.00
2014-9-15,79,66,56,44,36,30,48,35,17,30.41,30.34,13,5,16,0.00
2014-9-16,78,65,55,44,37,31,52,37,19,30.42,30.32,11,5,18,0.00
2014-9-17,78,65,56,45,39,35,50,40,22,30.34,30.23,11,5,20,0.00
2014-9-18,79,65,52,43,40,37,60,42,23,30.28,30.18,11,4,16,0.00
2014-9-19,78,65,53,45,42,39,61,44,28,30.30,30.23,10,5,15,0.00
2014-9-20,76,61,48,59,45,39,91,57,33,30.39,30.30,17,4,25,0.18
2014-9-21,73,60,51,57,51,44,94,75,49,30.45,30.34,18,4,28,0.30
2014-9-22,71,58,52,55,49,39,96,75,33,30.41,30.34,18,4,21,0.24
2014-9-23,71,59,48,47,43,37,80,58,39,30.41,30.35,8,3,12,0.00
2014-9-24,76,62,48,47,43,39,76,51,29,30.43,30.37,10,4,14,0.00
2014-9-25,79,64,50,46,42,38,71,46,23,30.41,30.32,13,4,18,0.00
2014-9-26,78,65,52,45,41,38,63,42,27,30.34,30.24,22,4,40,0.00
2014-9-27,77,62,51,57,45,38,87,56,33,30.25,30.11,20,4,29,0.31
2014-9-28,58,50,43,48,45,41,95,84,58,30.27,30.15,13,3,24,0.72
2014-9-29,56,44,39,45,40,35,96,86,62,30.23,30.14,19,4,34,0.19
2014-9-30,58,46,38,38,36,33,81,68,47,30.21,30.11,15,5,18,0.00
2014-10-1,46,40,33,42,35,30,95,84,59,30.25,30.08,11,4,17,0.28
2014-10-2,52,39,31,36,32,27,96,77,43,30.41,30.25,14,2,17,0.08
2014-10-3,59,45,33,33,28,22,71,53,30,30.47,30.41,11,4,14,0.00
2014-10-4,61,48,36,37,29,21,73,49,30,30.44,30.31,11,4,15,0.00
2014-10-5,63,49,35,36,30,26,74,50,28,30.34,30.29,10,4,14,0.00
2014-10-6,66,52,40,36,31,27,67,47,23,30.34,30.27,11,4,14,0.00
2014-10-7,65,53,42,36,29,22,64,43,23,30.32,30.28,13,4,14,0.00
2014-10-8,67,54,44,39,34,32,65,50,30,30.29,30.21,10,3,13,0.00
2014-10-9,51,47,44,44,40,34,95,80,54,30.21,30.18,5,1,8,0.35
2014-10-10,55,47,42,47,44,40,96,90,72,30.31,30.21,8,2,9,0.07
2014-10-11,62,50,40,42,37,32,91,63,35,30.32,30.15,10,5,19,0.00
2014-10-12,53,44,31,35,32,27,89,65,45,30.27,30.03,22,6,31,0.04
2014-10-13,49,38,29,31,26,21,88,64,36,30.39,30.28,10,2,15,0.00
2014-10-14,62,44,28,37,28,20,81,57,31,30.39,30.32,8,3,11,0.00
2014-10-15,69,53,42,35,28,20,61,40,18,30.34,30.23,11,4,17,0.00
2014-10-16,68,53,39,31,24,17,56,35,15,30.30,30.22,16,5,23,0.00
2014-10-17,66,52,41,32,24,16,53,36,21,30.29,30.23,9,3,12,0.00
2014-10-18,64,53,45,37,33,28,64,49,29,30.29,30.25,7,2,12,0.00
2014-10-19,64,53,41,39,36,33,73,54,34,30.31,30.24,12,4,19,0.00
2014-10-20,64,52,40,39,36,33,76,56,37,30.32,30.26,10,4,16,0.00
2014-10-21,59,50,41,43,38,34,85,64,50,30.26,30.18,11,3,20,0.00
2014-10-22,61,48,37,40,36,33,89,65,37,30.34,30.21,12,4,25,0.00